createdAt,value
2018-12-02T00:01:14.185Z,6.75
2018-12-02T00:06:17.503Z,4.60
2018-12-02T00:11:20.816Z,5.00
2018-12-02T00:16:24.135Z,6.25
2018-12-02T00:21:27.445Z,4.50
2018-12-02T00:26:30.754Z,4.60
2018-12-02T00:31:34.056Z,4.00
2018-12-02T00:36:37.358Z,5.00
2018-12-02T00:41:40.709Z,4.80
2018-12-02T00:46:44.025Z,4.00
2018-12-02T00:51:47.355Z,4.25
2018-12-02T00:56:50.667Z,3.40
2018-12-02T01:01:53.978Z,4.60
2018-12-02T01:06:57.290Z,4.75
2018-12-02T01:12:00.595Z,4.00
2018-12-02T01:17:03.918Z,4.00
2018-12-02T01:22:07.222Z,4.50
2018-12-02T01:27:10.534Z,4.00
2018-12-02T01:32:13.847Z,4.00
2018-12-02T01:37:17.262Z,4.50
2018-12-02T01:42:20.635Z,4.25
2018-12-02T01:47:23.947Z,5.00
2018-12-02T01:52:27.246Z,4.75
2018-12-02T01:57:30.557Z,6.25
2018-12-02T02:02:33.863Z,4.00
2018-12-02T02:07:37.167Z,4.75
2018-12-02T02:12:40.482Z,5.00
2018-12-02T02:17:43.918Z,4.60
2018-12-02T02:22:47.410Z,3.75
2018-12-02T02:27:55.087Z,4.80
2018-12-02T02:32:58.494Z,4.00
2018-12-02T02:38:01.817Z,4.60
2018-12-02T02:43:05.185Z,4.00
2018-12-02T02:48:08.467Z,4.00
2018-12-02T02:53:11.806Z,4.00
2018-12-02T02:58:15.138Z,4.75
2018-12-02T03:03:18.435Z,4.00
2018-12-02T03:08:21.734Z,4.40
2018-12-02T03:13:25.017Z,4.00
2018-12-02T03:18:28.333Z,5.00
2018-12-02T03:23:31.631Z,4.00
2018-12-02T03:28:35.014Z,4.00
2018-12-02T03:33:38.343Z,5.00
2018-12-02T03:38:41.650Z,4.00
2018-12-02T03:43:44.938Z,4.40
2018-12-02T03:48:48.237Z,4.00
2018-12-02T03:53:51.523Z,4.50
2018-12-02T03:58:54.830Z,4.00
2018-12-02T04:03:58.130Z,4.00
2018-12-02T04:09:01.418Z,3.00
2018-12-02T04:14:05.010Z,5.00
2018-12-02T04:19:08.295Z,3.00
2018-12-02T04:24:11.580Z,3.75
2018-12-02T04:29:14.874Z,4.00
2018-12-02T04:34:18.184Z,4.00
2018-12-02T04:39:21.511Z,3.50
2018-12-02T04:44:24.798Z,4.00
2018-12-02T04:49:28.101Z,4.00
2018-12-02T04:54:31.414Z,3.50
2018-12-02T04:59:34.713Z,3.20
2018-12-02T05:04:37.998Z,3.75
2018-12-02T05:09:41.319Z,3.75
2018-12-02T05:14:44.607Z,4.00
2018-12-02T05:19:47.911Z,3.75
2018-12-02T05:24:51.208Z,4.00
2018-12-02T05:29:54.504Z,2.25
2018-12-02T05:34:57.794Z,4.00
2018-12-02T05:40:01.099Z,3.75
2018-12-02T05:45:04.829Z,4.00
2018-12-02T05:50:23.833Z,4.00
2018-12-02T05:55:29.410Z,4.00
2018-12-02T06:00:32.715Z,3.25
2018-12-02T06:05:36.018Z,3.00
2018-12-02T06:10:39.306Z,3.50
2018-12-02T06:15:42.658Z,3.00
2018-12-02T06:20:45.959Z,4.00
2018-12-02T06:25:49.272Z,3.50
2018-12-02T06:30:52.589Z,3.00
2018-12-02T06:35:55.889Z,3.00
2018-12-02T06:40:59.186Z,3.25
2018-12-02T06:46:02.643Z,3.00
2018-12-02T06:51:06.441Z,3.00
2018-12-02T06:56:12.747Z,3.00
2018-12-02T07:01:23.703Z,3.00
2018-12-02T07:06:27.132Z,3.00
2018-12-02T07:11:31.443Z,3.40
2018-12-02T07:16:34.791Z,4.00
2018-12-02T07:21:38.114Z,3.00
2018-12-02T07:26:41.452Z,3.00
2018-12-02T07:31:44.762Z,2.80
2018-12-02T07:36:48.087Z,2.75
2018-12-02T07:41:51.452Z,3.00
2018-12-02T07:46:54.785Z,2.00
2018-12-02T07:51:58.127Z,11.25
2018-12-02T07:57:01.451Z,8.00
2018-12-02T08:02:04.986Z,16.50
2018-12-02T08:07:08.315Z,7.00
2018-12-02T08:12:11.659Z,9.25
2018-12-02T08:17:14.990Z,8.50
2018-12-02T08:22:18.333Z,8.50
2018-12-02T08:27:21.667Z,6.00
2018-12-02T08:32:24.975Z,4.80
2018-12-02T08:37:28.315Z,3.00
2018-12-02T08:42:31.650Z,4.60
2018-12-02T08:47:34.970Z,3.00
2018-12-02T08:52:38.302Z,2.25
2018-12-02T08:57:41.631Z,2.00
2018-12-02T09:02:47.251Z,3.00
2018-12-02T09:07:50.784Z,2.00
2018-12-02T09:12:56.508Z,2.00
2018-12-02T09:17:59.867Z,1.80
2018-12-02T09:23:03.638Z,2.00
2018-12-02T09:28:08.187Z,3.00
2018-12-02T09:33:11.492Z,2.00
2018-12-02T09:38:14.794Z,2.60
2018-12-02T09:43:18.111Z,2.25
2018-12-02T09:48:21.403Z,2.00
2018-12-02T09:53:24.695Z,2.00
2018-12-02T09:58:29.400Z,2.00
2018-12-02T10:03:32.702Z,2.00
2018-12-02T10:08:35.991Z,2.00
2018-12-02T10:13:39.290Z,2.00
2018-12-02T10:18:42.578Z,2.00
2018-12-02T10:23:45.867Z,1.60
2018-12-02T10:28:49.162Z,2.00
2018-12-02T10:33:52.567Z,2.00
2018-12-02T10:38:55.885Z,2.00
2018-12-02T10:43:59.178Z,2.25
2018-12-02T10:49:02.508Z,1.75
2018-12-02T10:54:05.855Z,2.00
2018-12-02T10:59:09.162Z,2.00
2018-12-02T11:04:12.473Z,2.00
2018-12-02T11:09:15.787Z,2.20
2018-12-02T11:14:19.098Z,1.60
2018-12-02T11:19:22.390Z,2.00
2018-12-02T11:24:25.686Z,2.60
2018-12-02T11:29:28.990Z,1.80
2018-12-02T11:34:32.283Z,2.00
2018-12-02T11:39:35.574Z,3.75
2018-12-02T11:44:38.914Z,3.00
2018-12-02T11:49:42.211Z,4.00
2018-12-02T11:54:45.503Z,3.00
2018-12-02T11:59:48.807Z,3.20
2018-12-02T12:04:52.103Z,3.40
2018-12-02T12:09:55.442Z,4.00
2018-12-02T12:14:58.807Z,4.75
2018-12-02T12:20:02.193Z,5.00
2018-12-02T12:25:07.339Z,3.00
2018-12-02T12:30:18.766Z,2.33
2018-12-02T12:35:22.272Z,3.50
2018-12-02T12:40:31.823Z,2.00
2018-12-02T12:45:35.134Z,2.50
2018-12-02T12:50:38.444Z,3.00
2018-12-02T12:55:41.739Z,2.00
2018-12-02T13:00:45.060Z,2.00
2018-12-02T13:05:48.434Z,2.00
2018-12-02T13:10:51.762Z,1.75
2018-12-02T13:15:55.089Z,2.00
2018-12-02T13:20:58.404Z,2.50
2018-12-02T13:26:01.732Z,1.60
2018-12-02T13:31:05.330Z,2.25
2018-12-02T13:36:08.634Z,2.00
2018-12-02T13:41:11.950Z,1.00
2018-12-02T13:46:15.263Z,1.25
2018-12-02T13:51:18.565Z,1.75
2018-12-02T13:56:23.113Z,2.00
2018-12-02T14:01:25.288Z,2.00
2018-12-02T14:06:28.626Z,1.00
2018-12-02T14:11:31.947Z,2.00
2018-12-02T14:17:11.779Z,2.00
2018-12-02T14:22:15.086Z,2.00
2018-12-02T14:27:18.398Z,1.00
2018-12-02T14:32:22.719Z,2.00
2018-12-02T14:37:26.039Z,2.00
2018-12-02T14:42:29.371Z,1.00
2018-12-02T14:47:32.677Z,2.00
2018-12-02T14:52:35.990Z,1.40
2018-12-02T14:57:39.343Z,1.00
2018-12-02T15:02:42.670Z,1.40
2018-12-02T15:07:45.975Z,1.00
2018-12-02T15:12:49.488Z,1.50
2018-12-02T15:17:52.806Z,2.00
2018-12-02T15:22:56.162Z,1.50
2018-12-02T15:27:59.460Z,1.00
2018-12-02T15:33:02.775Z,1.40
2018-12-02T15:38:06.527Z,1.00
2018-12-02T15:43:09.995Z,2.00
2018-12-02T15:48:13.319Z,1.00
2018-12-02T15:53:16.655Z,1.00
2018-12-02T15:58:20.187Z,2.00
2018-12-02T16:03:23.544Z,2.00
2018-12-02T16:08:26.981Z,1.00
2018-12-02T16:13:30.279Z,2.00
2018-12-02T16:18:33.581Z,1.00
2018-12-02T16:23:36.918Z,1.00
2018-12-02T16:28:40.218Z,1.00
2018-12-02T16:33:43.539Z,1.50
2018-12-02T16:38:46.834Z,1.00
2018-12-02T16:43:50.162Z,2.00
2018-12-02T16:48:53.466Z,1.00
2018-12-02T16:53:56.804Z,1.00
2018-12-02T16:59:36.266Z,2.00
2018-12-02T17:04:39.790Z,1.00
2018-12-02T17:09:43.105Z,1.00
2018-12-02T17:14:46.425Z,1.50
2018-12-02T17:19:49.755Z,1.00
2018-12-02T17:24:53.057Z,0.60
2018-12-02T17:29:56.374Z,0.50
2018-12-02T17:34:59.745Z,1.00
2018-12-02T17:40:03.086Z,0.00
2018-12-02T17:45:07.946Z,1.00
2018-12-02T17:50:12.966Z,1.00
2018-12-02T17:55:16.284Z,1.00
2018-12-02T18:00:22.338Z,1.00
2018-12-02T18:05:27.278Z,1.50
2018-12-02T18:10:30.615Z,1.00
2018-12-02T18:15:33.926Z,0.60
2018-12-02T18:20:37.277Z,1.00
2018-12-02T18:25:40.586Z,1.00
2018-12-02T18:30:43.937Z,1.60
2018-12-02T18:35:54.843Z,1.00
2018-12-02T18:41:03.062Z,1.00
2018-12-02T18:46:07.179Z,2.00
2018-12-02T18:51:10.568Z,2.00
2018-12-02T18:56:16.506Z,1.20
2018-12-02T19:01:17.283Z,2.00
2018-12-02T19:06:20.598Z,2.00
2018-12-02T19:11:23.923Z,1.00
2018-12-02T19:16:27.240Z,2.00
2018-12-02T19:21:31.397Z,2.00
2018-12-02T19:26:34.710Z,2.25
2018-12-02T19:31:38.037Z,2.00
2018-12-02T19:36:48.087Z,2.00
2018-12-02T19:41:51.384Z,3.00
2018-12-02T19:46:55.194Z,1.80
2018-12-02T19:51:58.507Z,3.00
2018-12-02T19:57:01.814Z,3.00
2018-12-02T20:02:05.460Z,3.00
2018-12-02T20:07:08.784Z,2.75
2018-12-02T20:12:12.385Z,3.00
2018-12-02T20:17:15.425Z,2.00
2018-12-02T20:22:18.726Z,2.40
2018-12-02T20:27:22.033Z,3.00
2018-12-02T20:32:25.317Z,3.00
2018-12-02T20:37:28.675Z,3.40
2018-12-02T20:42:32.523Z,3.00
2018-12-02T20:47:35.835Z,3.00
2018-12-02T20:52:39.148Z,4.00
2018-12-02T20:57:42.507Z,3.00
2018-12-02T21:02:50.716Z,4.00
2018-12-02T21:07:54.027Z,3.25
2018-12-02T21:12:57.389Z,4.00
2018-12-02T21:18:00.713Z,3.20
2018-12-02T21:23:04.047Z,4.00
2018-12-02T21:28:08.490Z,4.00
2018-12-02T21:33:11.829Z,3.75
2018-12-02T21:38:15.133Z,4.00
2018-12-02T21:43:18.471Z,3.00
2018-12-02T21:48:22.177Z,4.00
2018-12-02T21:53:25.474Z,4.00
2018-12-02T21:58:28.778Z,3.60
2018-12-02T22:03:32.087Z,4.00
2018-12-02T22:08:35.390Z,4.00
2018-12-02T22:13:43.388Z,3.60
2018-12-02T22:18:42.080Z,5.00
2018-12-02T22:23:45.387Z,3.00
2018-12-02T22:28:48.712Z,4.00
2018-12-02T22:33:52.014Z,4.00
2018-12-02T22:38:55.311Z,4.75
2018-12-02T22:43:58.613Z,5.00
2018-12-02T22:49:01.927Z,4.20
2018-12-02T22:54:05.415Z,4.00
2018-12-02T22:59:08.735Z,5.00
2018-12-02T23:04:12.075Z,4.60
2018-12-02T23:09:15.386Z,5.00
2018-12-02T23:14:18.693Z,4.00
2018-12-02T23:19:22.026Z,3.60
2018-12-02T23:24:25.340Z,4.00
2018-12-02T23:29:28.668Z,5.00
2018-12-02T23:34:32.091Z,5.00
2018-12-02T23:39:35.409Z,4.00
2018-12-02T23:44:38.754Z,5.00
2018-12-02T23:49:42.066Z,6.25
2018-12-02T23:54:45.411Z,4.00
2018-12-02T23:59:48.713Z,5.00
